Time;durP1;ratioP1;P1;durP2;ratioP2;P2;SDS_P1;SDS_P2;PMS_P1;PMS_P2;Temp;Humidity;BMP_temperature;BMP_pressure;BME280_temperature;BME280_humidity;BME280_pressure;Samples;Min_cycle;Max_cycle;Signal;HPM_P1;HPM_P2
2021/01/14 00:00:32;;;;;;;2.45;0.50;;;;;;;26.59;35.33;98010.09;4990748;28;20309;-67
2021/01/14 00:02:58;;;;;;;1.60;0.45;;;;;;;26.49;35.50;97998.09;4990345;28;20198;-67
2021/01/14 00:05:24;;;;;;;3.70;0.73;;;;;;;26.61;35.19;98003.72;4990249;28;20328;-67
2021/01/14 00:07:53;;;;;;;0.55;0.40;;;;;;;26.58;34.71;98007.63;4989618;28;20288;-67
2021/01/14 00:10:20;;;;;;;1.20;0.70;;;;;;;26.57;34.55;98022.88;4990234;28;20676;-67
2021/01/14 00:12:46;;;;;;;2.03;0.60;;;;;;;26.48;35.02;98029.44;4991554;28;20229;-67
2021/01/14 00:15:14;;;;;;;2.15;0.50;;;;;;;26.39;35.19;98018.00;4991019;28;20208;-66
2021/01/14 00:17:41;;;;;;;1.17;0.50;;;;;;;26.43;33.96;98014.94;4991541;28;20569;-66
2021/01/14 00:20:10;;;;;;;1.10;0.47;;;;;;;26.45;35.38;98013.75;4990641;28;20365;-67
2021/01/14 00:22:36;;;;;;;2.88;0.70;;;;;;;26.51;34.75;98006.75;4990720;28;20292;-67
2021/01/14 00:25:04;;;;;;;1.65;0.75;;;;;;;26.54;34.83;98001.81;4990074;28;20210;-67
2021/01/14 00:27:30;;;;;;;0.82;0.52;;;;;;;26.56;34.77;98009.66;4989218;28;20254;-67
2021/01/14 00:29:57;;;;;;;3.38;0.73;;;;;;;26.56;34.87;98012.34;4986623;28;20224;-67
2021/01/14 00:32:23;;;;;;;1.65;0.52;;;;;;;26.49;34.61;98028.41;4969839;28;20214;-67
2021/01/14 00:34:49;;;;;;;1.20;0.50;;;;;;;26.51;34.73;98023.69;4969512;28;20256;-67
2021/01/14 00:40:00;;;;;;;1.27;0.43;;;;;;;26.55;34.32;98032.16;4971175;28;20233;-67
2021/01/14 00:42:26;;;;;;;1.27;0.60;;;;;;;26.49;35.27;98023.03;4968705;28;20537;-66
2021/01/14 00:44:53;;;;;;;1.08;0.43;;;;;;;26.54;35.12;98004.50;4973970;28;20202;-66
2021/01/14 00:47:19;;;;;;;0.98;0.45;;;;;;;26.49;35.27;97998.91;4989453;28;20296;-67
2021/01/14 00:49:45;;;;;;;0.80;0.50;;;;;;;26.56;34.57;97994.44;4988468;28;20244;-66
2021/01/14 00:52:11;;;;;;;0.80;0.55;;;;;;;26.55;34.63;98019.56;4988540;28;20209;-66
2021/01/14 00:54:38;;;;;;;1.27;0.60;;;;;;;26.46;34.42;98026.09;4987408;28;20649;-66
2021/01/14 00:57:06;;;;;;;1.98;0.55;;;;;;;26.42;34.50;98043.63;4987787;28;20228;-65
2021/01/14 00:59:33;;;;;;;1.10;0.60;;;;;;;26.34;34.79;98051.81;4987514;28;20731;-66
2021/01/14 01:01:59;;;;;;;0.50;0.50;;;;;;;26.33;34.88;98050.97;4988167;28;20705;-66
2021/01/14 01:04:26;;;;;;;2.45;0.60;;;;;;;26.27;34.24;98058.97;4989133;28;20308;-66
2021/01/14 01:06:52;;;;;;;1.60;0.60;;;;;;;26.22;35.28;98048.81;4992676;28;20202;-67
2021/01/14 01:09:20;;;;;;;2.17;0.50;;;;;;;26.25;35.08;98048.44;4992207;28;20312;-66
2021/01/14 01:11:46;;;;;;;1.17;0.60;;;;;;;26.30;34.91;98058.59;4993347;28;20213;-67
2021/01/14 01:14:12;;;;;;;1.25;0.60;;;;;;;26.13;34.67;98068.72;4991591;28;20229;-65
2021/01/14 01:16:39;;;;;;;0.50;0.50;;;;;;;26.02;35.36;98083.50;4994231;28;20231;-65
2021/01/14 01:19:06;;;;;;;2.90;0.47;;;;;;;26.03;35.35;98090.53;4992126;28;20245;-66
2021/01/14 01:21:32;;;;;;;0.73;0.65;;;;;;;25.99;35.78;98081.19;4992645;28;20294;-64
2021/01/14 01:23:58;;;;;;;1.15;0.60;;;;;;;25.93;35.06;98076.56;4992307;28;20634;-66
2021/01/14 01:26:24;;;;;;;0.77;0.50;;;;;;;25.95;34.89;98058.47;4991874;28;20314;-66
2021/01/14 01:28:50;;;;;;;0.70;0.50;;;;;;;25.92;35.08;98050.81;4992935;28;20319;-66
2021/01/14 01:31:16;;;;;;;1.65;0.68;;;;;;;25.81;35.58;98044.97;4992629;28;20292;-65
2021/01/14 01:33:43;;;;;;;0.73;0.55;;;;;;;25.87;35.16;98053.25;4991211;28;20230;-66
2021/01/14 01:36:12;;;;;;;0.77;0.40;;;;;;;25.87;35.32;98063.97;4991638;28;20205;-66
2021/01/14 01:38:38;;;;;;;1.35;0.70;;;;;;;25.77;36.03;98067.78;4991167;28;20314;-65
2021/01/14 01:41:05;;;;;;;0.68;0.50;;;;;;;25.72;35.05;98064.84;4990671;28;20687;-66
2021/01/14 01:43:31;;;;;;;3.33;0.70;;;;;;;25.71;35.93;98051.66;4991825;28;20244;-65
2021/01/14 01:45:59;;;;;;;0.40;0.30;;;;;;;25.80;35.98;98062.03;4991126;28;20268;-65
2021/01/14 01:48:26;;;;;;;1.67;0.60;;;;;;;25.75;35.45;98074.34;4992714;28;20296;-66
2021/01/14 01:50:56;;;;;;;0.57;0.40;;;;;;;25.77;35.40;98091.88;4991682;28;20271;-66
2021/01/14 01:53:22;;;;;;;1.10;0.57;;;;;;;25.79;35.32;98075.63;4992583;28;20232;-66
2021/01/14 01:55:49;;;;;;;1.48;0.50;;;;;;;25.75;35.82;98091.25;4992041;28;20313;-66
2021/01/14 01:58:20;;;;;;;14.10;0.80;;;;;;;25.73;36.25;98090.59;4991408;28;20637;-66
2021/01/14 02:00:46;;;;;;;3.28;0.63;;;;;;;25.71;35.81;98081.91;4992354;28;20536;-67
2021/01/14 02:03:13;;;;;;;1.60;0.50;;;;;;;25.74;35.46;98076.19;4990948;28;20292;-66
2021/01/14 02:05:39;;;;;;;8.60;0.82;;;;;;;25.72;35.73;98072.06;4992732;28;20299;-66
2021/01/14 02:08:13;;;;;;;1.00;0.60;;;;;;;25.73;35.65;98101.31;4991270;28;20206;-66
2021/01/14 02:10:45;;;;;;;3.13;0.55;;;;;;;25.73;35.42;98095.97;4992809;28;20692;-67
2021/01/14 02:13:20;;;;;;;1.33;0.60;;;;;;;25.67;35.79;98091.34;4992704;28;20235;-67
2021/01/14 02:15:48;;;;;;;2.55;0.70;;;;;;;25.67;35.54;98086.00;4992616;28;20499;-66
2021/01/14 02:18:18;;;;;;;2.75;0.75;;;;;;;25.66;35.22;98074.47;4990395;28;20338;-66
2021/01/14 02:20:48;;;;;;;1.60;0.65;;;;;;;25.58;36.17;98089.81;4991419;28;20202;-67
2021/01/14 02:23:21;;;;;;;1.77;0.50;;;;;;;25.63;36.05;98101.63;4991639;28;20206;-65
2021/01/14 02:26:11;;;;;;;1.90;0.60;;;;;;;25.60;35.36;98104.66;4991842;28;20633;-66
2021/01/14 02:28:39;;;;;;;1.55;0.70;;;;;;;25.60;35.77;98093.97;4992414;28;20654;-65
2021/01/14 02:31:05;;;;;;;0.80;0.68;;;;;;;25.59;36.33;98091.47;4991136;28;20565;-66
2021/01/14 02:33:31;;;;;;;1.42;0.63;;;;;;;25.61;35.48;98094.78;4991410;28;20221;-66
2021/01/14 02:35:57;;;;;;;2.22;0.70;;;;;;;25.56;35.83;98111.41;4991434;28;20665;-66
2021/01/14 02:38:23;;;;;;;0.68;0.45;;;;;;;25.52;36.31;98125.38;4991764;28;20213;-65
2021/01/14 02:40:50;;;;;;;1.77;0.60;;;;;;;25.47;35.89;98118.72;4991243;28;20205;-66
2021/01/14 02:43:17;;;;;;;1.70;0.60;;;;;;;25.39;36.01;98121.50;4990441;28;20288;-65
2021/01/14 02:45:43;;;;;;;1.52;0.40;;;;;;;25.42;36.21;98114.97;4990420;28;20469;-66
2021/01/14 02:48:13;;;;;;;1.60;0.52;;;;;;;25.48;35.50;98120.41;4990439;28;20239;-65
2021/01/14 02:50:40;;;;;;;2.58;0.75;;;;;;;25.55;35.94;98131.19;4991342;28;20533;-66
2021/01/14 02:53:08;;;;;;;1.42;0.40;;;;;;;25.58;35.53;98122.78;4990392;28;20225;-66
2021/01/14 02:55:35;;;;;;;1.48;0.60;;;;;;;25.64;35.48;98130.03;4990965;28;20680;-66
2021/01/14 02:58:02;;;;;;;0.85;0.50;;;;;;;25.64;35.69;98121.19;4988847;28;20618;-65
2021/01/14 03:00:29;;;;;;;1.55;0.52;;;;;;;25.61;35.97;98109.03;4989808;28;20316;-66
2021/01/14 03:02:55;;;;;;;1.25;0.60;;;;;;;25.59;35.87;98111.03;4989173;28;20715;-66
2021/01/14 03:05:21;;;;;;;1.90;0.50;;;;;;;25.62;35.42;98110.66;4990892;28;20209;-65
2021/01/14 03:07:47;;;;;;;0.88;0.50;;;;;;;25.56;35.46;98126.66;4990492;28;20205;-65
2021/01/14 03:10:13;;;;;;;2.42;0.45;;;;;;;25.50;36.18;98128.25;4990914;28;20329;-66
2021/01/14 03:12:39;;;;;;;1.45;0.55;;;;;;;25.48;35.55;98128.41;4989447;28;20610;-66
2021/01/14 03:15:06;;;;;;;0.50;0.50;;;;;;;25.52;35.08;98128.06;4990664;28;20213;-65
2021/01/14 03:17:36;;;;;;;7.43;0.80;;;;;;;25.44;35.47;98128.97;4990655;28;20340;-65
2021/01/14 03:20:03;;;;;;;0.77;0.50;;;;;;;25.51;35.71;98131.72;4990144;28;20324;-66
2021/01/14 03:22:29;;;;;;;0.88;0.52;;;;;;;25.51;35.63;98134.41;4989435;28;20274;-66
2021/01/14 03:24:55;;;;;;;0.90;0.57;;;;;;;25.48;36.05;98131.09;4989275;28;20213;-66
2021/01/14 03:27:21;;;;;;;0.88;0.40;;;;;;;25.43;36.20;98133.50;4989179;28;20212;-65
2021/01/14 03:29:47;;;;;;;2.08;0.50;;;;;;;25.41;36.04;98140.88;4987973;28;20236;-66
2021/01/14 03:32:13;;;;;;;1.48;0.52;;;;;;;25.42;35.97;98125.66;4989940;28;20320;-66
2021/01/14 03:34:40;;;;;;;2.33;0.50;;;;;;;25.37;35.94;98133.44;4989085;28;20233;-66
2021/01/14 03:37:06;;;;;;;0.82;0.40;;;;;;;25.39;35.89;98132.22;4988445;28;20204;-66
2021/01/14 03:39:32;;;;;;;1.50;0.60;;;;;;;25.38;35.91;98133.25;4987750;28;20233;-66
2021/01/14 03:41:59;;;;;;;1.40;0.55;;;;;;;25.39;35.67;98147.44;4989212;28;20201;-66
2021/01/14 03:44:25;;;;;;;0.85;0.40;;;;;;;25.36;36.05;98143.28;4990058;28;20256;-66
2021/01/14 03:46:52;;;;;;;1.00;0.50;;;;;;;25.29;36.38;98148.53;4970029;28;20198;-66
2021/01/14 03:49:19;;;;;;;0.65;0.50;;;;;;;25.33;36.49;98143.69;4969628;28;20230;-65
2021/01/14 03:51:48;;;;;;;0.93;0.50;;;;;;;25.31;36.36;98137.66;4969822;28;20642;-66
2021/01/14 03:54:14;;;;;;;3.00;0.65;;;;;;;25.28;35.60;98138.03;4970180;28;20720;-66
2021/01/14 03:56:41;;;;;;;5.88;0.73;;;;;;;25.34;35.36;98145.31;4969360;28;20621;-65
2021/01/14 03:59:08;;;;;;;2.67;0.50;;;;;;;25.29;35.45;98153.91;4969223;28;20222;-66
2021/01/14 04:01:34;;;;;;;3.97;0.68;;;;;;;25.28;35.99;98165.63;4969052;28;20231;-66
2021/01/14 04:04:01;;;;;;;1.27;0.40;;;;;;;25.30;36.33;98170.81;4970067;28;20307;-63
2021/01/14 04:06:31;;;;;;;2.10;0.60;;;;;;;25.26;36.11;98166.78;4983468;28;20571;-66
2021/01/14 04:08:59;;;;;;;2.90;0.60;;;;;;;25.26;36.10;98156.09;4990291;28;20294;-66
2021/01/14 04:11:26;;;;;;;1.00;0.52;;;;;;;25.24;35.65;98160.81;4988933;28;20277;-66
2021/01/14 04:13:52;;;;;;;2.03;0.50;;;;;;;25.23;35.67;98159.13;4990881;28;20230;-65
2021/01/14 04:16:18;;;;;;;2.55;0.60;;;;;;;25.19;35.90;98157.84;4990036;28;20247;-65
2021/01/14 04:18:44;;;;;;;3.33;0.80;;;;;;;25.24;35.61;98155.44;4989769;28;20233;-65
2021/01/14 04:21:10;;;;;;;1.02;0.60;;;;;;;25.21;36.20;98170.00;4989925;28;20205;-66
2021/01/14 04:23:36;;;;;;;1.23;0.80;;;;;;;25.24;35.46;98177.69;4987362;28;20202;-66
2021/01/14 04:26:03;;;;;;;0.63;0.47;;;;;;;25.19;36.00;98182.75;4990582;28;20209;-64
2021/01/14 04:28:29;;;;;;;0.70;0.50;;;;;;;25.23;36.47;98185.88;4988950;28;20211;-66
2021/01/14 04:30:55;;;;;;;1.33;0.70;;;;;;;25.21;36.26;98193.28;4988612;28;20208;-65
2021/01/14 04:33:21;;;;;;;4.30;0.57;;;;;;;25.24;35.72;98198.25;4989482;28;20233;-66
2021/01/14 04:35:49;;;;;;;0.85;0.47;;;;;;;25.27;35.79;98200.59;4989816;28;20201;-65
2021/01/14 04:38:16;;;;;;;0.65;0.40;;;;;;;25.32;36.11;98206.22;4988952;28;20205;-65
2021/01/14 04:40:42;;;;;;;1.98;0.57;;;;;;;25.30;35.88;98202.91;4989034;28;20204;-66
2021/01/14 04:43:11;;;;;;;1.35;0.45;;;;;;;25.34;36.23;98209.53;4993930;28;20255;-66
2021/01/14 04:45:39;;;;;;;1.98;0.50;;;;;;;25.36;36.34;98194.13;4994222;28;20216;-66
2021/01/14 04:48:07;;;;;;;1.73;0.60;;;;;;;25.37;36.04;98187.75;4993268;28;20209;-65
2021/01/14 04:50:34;;;;;;;1.75;0.70;;;;;;;25.44;35.46;98187.84;4991673;28;20553;-64
2021/01/14 04:53:00;;;;;;;1.05;0.60;;;;;;;25.48;35.25;98192.66;4991541;28;20244;-66
2021/01/14 04:55:29;;;;;;;1.20;0.40;;;;;;;25.52;36.12;98195.78;4993438;28;20703;-66
2021/01/14 04:57:55;;;;;;;0.95;0.75;;;;;;;25.52;35.94;98190.44;4991982;28;20205;-65
2021/01/14 05:00:25;;;;;;;0.70;0.38;;;;;;;25.56;35.70;98193.56;4990846;28;20248;-64
2021/01/14 05:02:57;;;;;;;2.50;0.43;;;;;;;25.59;35.49;98195.88;4993856;28;20252;-65
2021/01/14 05:05:24;;;;;;;1.60;0.45;;;;;;;25.61;35.73;98196.50;4992520;28;20232;-67
2021/01/14 05:08:08;;;;;;;1.35;0.40;;;;;;;25.65;34.83;98195.97;4991569;28;20209;-66
2021/01/14 05:10:36;;;;;;;0.50;0.50;;;;;;;25.60;35.08;98186.84;4992928;28;20271;-66
2021/01/14 05:13:03;;;;;;;2.40;0.70;;;;;;;25.58;35.78;98205.75;4992041;28;20646;-66
2021/01/14 05:15:30;;;;;;;1.27;0.60;;;;;;;25.63;35.61;98199.81;4992515;28;20657;-66
2021/01/14 05:17:58;;;;;;;2.13;0.60;;;;;;;25.65;35.74;98203.16;4992093;28;20524;-66
2021/01/14 05:20:25;;;;;;;0.80;0.40;;;;;;;25.64;34.99;98214.88;4992288;28;20294;-66
2021/01/14 05:22:56;;;;;;;3.50;0.57;;;;;;;25.64;35.64;98204.16;4993412;28;20209;-66
2021/01/14 05:25:23;;;;;;;0.75;0.50;;;;;;;25.68;35.15;98221.53;4993463;28;20216;-67
2021/01/14 05:27:49;;;;;;;1.40;0.50;;;;;;;25.71;35.45;98220.31;4991751;28;20212;-66
2021/01/14 05:30:16;;;;;;;0.90;0.50;;;;;;;25.69;35.81;98233.88;4992695;28;20232;-66
2021/01/14 05:32:44;;;;;;;1.23;0.50;;;;;;;25.71;35.80;98221.13;4991622;28;20585;-67
2021/01/14 05:35:12;;;;;;;4.18;0.75;;;;;;;25.64;36.09;98242.47;4991867;28;20205;-67
2021/01/14 05:37:41;;;;;;;0.57;0.40;;;;;;;25.63;35.41;98250.69;4992580;28;20205;-66
2021/01/14 05:40:10;;;;;;;0.80;0.50;;;;;;;25.67;35.53;98242.09;4991845;28;20317;-67
2021/01/14 05:42:36;;;;;;;2.45;0.40;;;;;;;25.68;36.16;98245.63;4991671;28;20617;-66
2021/01/14 05:45:04;;;;;;;3.25;0.50;;;;;;;25.73;34.89;98250.41;4991631;28;20216;-66
2021/01/14 05:47:30;;;;;;;1.25;0.50;;;;;;;25.72;35.09;98246.91;4993793;28;20216;-67
2021/01/14 05:49:59;;;;;;;1.13;0.55;;;;;;;25.74;35.08;98244.88;4991788;28;20316;-67
2021/01/14 05:52:27;;;;;;;0.90;0.57;;;;;;;25.77;35.61;98233.78;4992762;28;20270;-66
2021/01/14 05:55:03;;;;;;;2.50;0.50;;;;;;;25.75;34.95;98235.84;4991300;28;20225;-65
2021/01/14 05:57:31;;;;;;;1.98;0.32;;;;;;;25.77;34.79;98236.47;4992897;28;20211;-66
2021/01/14 05:59:59;;;;;;;1.92;0.60;;;;;;;25.75;34.96;98243.88;4992046;28;20632;-67
2021/01/14 06:02:30;;;;;;;0.98;0.60;;;;;;;25.78;35.09;98248.00;4990766;28;20205;-67
2021/01/14 06:04:57;;;;;;;0.50;0.50;;;;;;;25.75;34.06;98248.41;4992316;28;20212;-67
2021/01/14 06:07:24;;;;;;;4.28;0.77;;;;;;;25.77;33.87;98262.44;4990521;28;20241;-66
2021/01/14 06:09:50;;;;;;;0.70;0.57;;;;;;;25.79;34.04;98258.53;4991310;28;20225;-66
2021/01/14 06:12:17;;;;;;;3.50;0.75;;;;;;;25.80;33.44;98251.34;4991209;28;20288;-65
2021/01/14 06:14:43;;;;;;;0.93;0.70;;;;;;;25.73;33.60;98251.25;4991735;28;20229;-66
2021/01/14 06:17:11;;;;;;;1.38;0.77;;;;;;;25.72;33.22;98252.25;4990538;28;20337;-65
2021/01/14 06:19:38;;;;;;;1.88;0.50;;;;;;;25.73;33.58;98248.59;4992296;28;20336;-65
2021/01/14 06:22:06;;;;;;;3.72;0.75;;;;;;;25.81;34.30;98243.13;4990437;28;20288;-65
2021/01/14 06:24:36;;;;;;;24.55;1.90;;;;;;;25.66;34.40;98248.50;4990793;28;20205;-64
2021/01/14 06:27:10;;;;;;;19.08;1.90;;;;;;;25.57;35.81;98246.91;4992264;28;20304;-66
2021/01/14 06:29:37;;;;;;;19.00;2.92;;;;;;;25.45;36.60;98248.41;4990638;28;20229;-65
2021/01/14 06:32:08;;;;;;;27.45;2.92;;;;;;;25.64;35.67;98257.72;4989933;28;20213;-67
2021/01/14 06:34:35;;;;;;;10.73;1.90;;;;;;;25.71;36.61;98258.63;4988954;28;20233;-64
2021/01/14 06:37:09;;;;;;;16.02;1.77;;;;;;;25.76;35.66;98271.47;4991716;28;20205;-63
2021/01/14 06:39:39;;;;;;;50.22;3.00;;;;;;;25.79;35.77;98287.16;4991144;28;20259;-67
2021/01/14 06:42:15;;;;;;;14.20;2.03;;;;;;;25.88;35.43;98283.38;4990355;28;20608;-67
2021/01/14 06:44:50;;;;;;;19.13;2.40;;;;;;;25.81;36.12;98288.66;4991264;28;20219;-69
2021/01/14 06:47:34;;;;;;;18.92;1.70;;;;;;;26.05;35.10;98294.75;4990889;28;20564;-68
2021/01/14 06:50:21;;;;;;;9.30;1.63;;;;;;;26.09;36.10;98285.31;4990969;28;20225;-68
2021/01/14 06:52:52;;;;;;;11.57;1.60;;;;;;;25.88;36.39;98286.06;4990845;28;20292;-65
2021/01/14 06:55:20;;;;;;;5.75;1.08;;;;;;;25.83;36.10;98283.94;4990843;28;20194;-67
2021/01/14 06:58:04;;;;;;;13.32;1.70;;;;;;;25.85;35.72;98283.75;4991424;28;20635;-65
2021/01/14 07:00:31;;;;;;;7.82;1.45;;;;;;;25.93;35.69;98296.19;4991151;28;20674;-67
2021/01/14 07:03:16;;;;;;;8.70;1.65;;;;;;;25.79;36.59;98290.66;4989935;28;20636;-67
2021/01/14 07:06:06;;;;;;;9.60;1.40;;;;;;;25.95;35.33;98299.53;4990227;28;20288;-67
2021/01/14 07:08:35;;;;;;;16.75;1.55;;;;;;;26.10;35.63;98295.00;4990848;28;20224;-63
2021/01/14 07:11:04;;;;;;;10.60;1.50;;;;;;;26.16;35.08;98275.50;4990089;28;20625;-65
2021/01/14 07:13:33;;;;;;;9.35;1.75;;;;;;;26.06;36.51;98288.34;4990471;28;20272;-67
2021/01/14 07:16:00;;;;;;;5.60;1.00;;;;;;;26.03;35.91;98288.75;4990800;28;20256;-66
2021/01/14 07:18:29;;;;;;;5.80;1.25;;;;;;;26.11;36.08;98288.63;4990836;28;20300;-66
2021/01/14 07:21:00;;;;;;;6.28;1.30;;;;;;;26.16;35.46;98286.22;4990643;28;20291;-66
2021/01/14 07:23:28;;;;;;;9.40;1.42;;;;;;;26.16;35.60;98282.69;4991652;28;20288;-66
2021/01/14 07:25:57;;;;;;;8.13;1.35;;;;;;;26.14;35.11;98288.25;4991956;28;20308;-66
2021/01/14 07:28:24;;;;;;;6.90;1.42;;;;;;;26.19;35.34;98299.22;4992125;28;20220;-67
2021/01/14 07:30:50;;;;;;;6.75;1.00;;;;;;;26.17;34.98;98292.41;4992210;28;20240;-66
2021/01/14 07:33:26;;;;;;;3.50;1.33;;;;;;;26.15;35.57;98302.50;4992249;28;20754;-66
2021/01/14 07:35:54;;;;;;;4.70;1.20;;;;;;;26.21;35.34;98302.56;4990911;28;20273;-67
2021/01/14 07:38:22;;;;;;;6.05;1.15;;;;;;;26.06;35.34;98307.09;4991245;28;20202;-66
2021/01/14 07:40:54;;;;;;;5.70;1.40;;;;;;;26.12;35.10;98325.13;4989921;28;20292;-67
2021/01/14 07:43:32;;;;;;;5.53;1.10;;;;;;;26.02;35.14;98324.59;4990703;28;20312;-67
2021/01/14 07:46:16;;;;;;;4.45;0.93;;;;;;;25.94;34.72;98340.72;4990251;28;20724;-66
2021/01/14 07:48:42;;;;;;;3.85;1.15;;;;;;;25.97;35.28;98340.38;4990777;28;20233;-67
2021/01/14 07:51:09;;;;;;;4.45;1.00;;;;;;;25.94;36.09;98332.69;4990579;28;20699;-65
2021/01/14 07:53:35;;;;;;;8.68;1.00;;;;;;;26.09;35.81;98351.47;4989452;28;20225;-65
2021/01/14 07:56:23;;;;;;;8.23;1.20;;;;;;;26.05;35.83;98345.66;4989296;28;20263;-64
2021/01/14 07:58:54;;;;;;;8.43;1.27;;;;;;;26.14;35.66;98344.50;4990398;28;20327;-65
2021/01/14 08:01:21;;;;;;;10.20;1.40;;;;;;;26.26;35.55;98344.03;4990260;28;20205;-63
2021/01/14 08:03:48;;;;;;;6.43;1.02;;;;;;;26.25;35.97;98335.19;4990816;28;20549;-66
2021/01/14 08:06:25;;;;;;;5.88;1.35;;;;;;;26.29;35.63;98336.44;4989407;28;20645;-67
2021/01/14 08:08:55;;;;;;;18.15;1.20;;;;;;;26.42;35.96;98334.97;4991357;28;20243;-66
2021/01/14 08:11:24;;;;;;;6.60;1.42;;;;;;;26.43;35.20;98347.34;4989374;28;20256;-66
2021/01/14 08:14:06;;;;;;;8.82;1.05;;;;;;;26.55;35.39;98348.53;4990018;28;20324;-64
2021/01/14 08:16:34;;;;;;;8.40;1.20;;;;;;;26.47;35.77;98344.09;4991227;28;20255;-67
2021/01/14 08:19:18;;;;;;;8.00;1.20;;;;;;;26.63;35.66;98352.91;4992451;28;20527;-67
2021/01/14 08:21:46;;;;;;;9.02;1.23;;;;;;;26.74;35.15;98357.81;4994304;28;20327;-65
2021/01/14 08:24:13;;;;;;;12.93;1.45;;;;;;;26.77;35.93;98354.75;4993980;28;20201;-67
2021/01/14 08:26:55;;;;;;;3.80;1.17;;;;;;;26.70;35.97;98359.22;4993534;28;20636;-67
2021/01/14 08:29:51;;;;;;;4.95;1.35;;;;;;;26.62;35.31;98362.00;4994114;28;20293;-67
2021/01/14 08:32:34;;;;;;;2.60;0.88;;;;;;;26.67;34.81;98349.69;4990087;28;20217;-67
2021/01/14 08:35:02;;;;;;;4.75;0.80;;;;;;;26.62;35.73;98357.47;4993331;28;20731;-67
2021/01/14 08:37:31;;;;;;;5.30;1.08;;;;;;;26.66;35.90;98357.94;4992603;28;20277;-67
2021/01/14 08:40:03;;;;;;;4.25;0.98;;;;;;;26.59;35.87;98369.38;4993427;28;20229;-69
2021/01/14 08:42:34;;;;;;;2.83;0.60;;;;;;;26.72;35.42;98373.28;4993660;28;20696;-68
2021/01/14 08:45:14;;;;;;;4.18;1.13;;;;;;;26.75;34.91;98391.69;4993045;28;20617;-67
2021/01/14 08:48:01;;;;;;;1.35;0.70;;;;;;;26.79;34.81;98392.94;4993441;28;20568;-67
2021/01/14 08:50:37;;;;;;;3.72;0.70;;;;;;;26.86;35.26;98384.97;4992946;28;20593;-67
2021/01/14 08:53:05;;;;;;;2.13;0.60;;;;;;;26.87;35.27;98390.16;4993430;28;20244;-68
2021/01/14 08:55:32;;;;;;;5.50;0.68;;;;;;;26.66;35.36;98398.97;4993619;28;20538;-67
2021/01/14 08:58:00;;;;;;;1.95;0.75;;;;;;;26.77;34.82;98393.13;4993508;28;20205;-67
2021/01/14 09:00:27;;;;;;;3.28;0.60;;;;;;;26.81;35.48;98407.00;4994409;28;20225;-67
2021/01/14 09:02:54;;;;;;;8.88;0.95;;;;;;;26.82;34.86;98411.34;4994224;28;20296;-68
2021/01/14 09:05:20;;;;;;;0.95;0.60;;;;;;;26.89;35.32;98414.91;4994502;28;20221;-67
2021/01/14 09:08:05;;;;;;;1.85;0.70;;;;;;;26.74;35.48;98408.78;4994193;28;20653;-68
2021/01/14 09:10:42;;;;;;;3.60;0.80;;;;;;;26.75;35.01;98415.81;4994178;28;20284;-67
2021/01/14 09:13:09;;;;;;;1.13;0.65;;;;;;;26.71;35.32;98407.31;4973380;28;20653;-67
2021/01/14 09:15:36;;;;;;;5.78;1.10;;;;;;;26.75;36.27;98405.09;4973626;28;20248;-68
2021/01/14 09:18:02;;;;;;;4.95;0.90;;;;;;;26.69;36.28;98417.38;4975030;28;20238;-71
2021/01/14 09:20:29;;;;;;;3.60;0.63;;;;;;;26.57;35.79;98419.69;4993770;28;20253;-70
2021/01/14 09:22:58;;;;;;;2.33;0.90;;;;;;;26.50;36.08;98426.00;4993306;28;20328;-71
2021/01/14 09:25:33;;;;;;;13.68;1.13;;;;;;;26.50;35.56;98429.50;4996667;28;20242;-69
2021/01/14 09:27:59;;;;;;;4.40;0.80;;;;;;;26.50;35.99;98424.16;4992455;28;20207;-69
2021/01/14 09:30:26;;;;;;;3.25;0.90;;;;;;;26.42;35.80;98431.47;4994192;28;20237;-72
2021/01/14 09:32:58;;;;;;;5.32;1.23;;;;;;;26.36;35.41;98433.03;4993477;28;20218;-69
2021/01/14 09:35:25;;;;;;;1.30;0.80;;;;;;;26.53;36.31;98444.38;4991066;28;20229;-71
2021/01/14 09:37:53;;;;;;;7.95;0.85;;;;;;;26.45;35.20;98445.31;4972585;28;20257;-72
2021/01/14 09:40:20;;;;;;;6.60;1.17;;;;;;;26.37;35.30;98454.28;4990113;28;20240;-69
2021/01/14 09:42:49;;;;;;;3.05;0.80;;;;;;;26.32;34.93;98462.06;4992323;28;20209;-70
2021/01/14 09:45:16;;;;;;;6.25;0.70;;;;;;;26.28;35.54;98462.59;4991705;28;20707;-69
2021/01/14 09:47:47;;;;;;;2.40;0.60;;;;;;;26.28;35.39;98474.16;4992212;28;20205;-70
2021/01/14 09:50:16;;;;;;;3.72;1.10;;;;;;;26.30;35.08;98471.31;4991347;28;20283;-70
2021/01/14 09:52:43;;;;;;;1.90;0.70;;;;;;;26.16;35.17;98476.47;4990812;28;20669;-71
2021/01/14 09:55:11;;;;;;;2.35;0.70;;;;;;;26.16;35.86;98470.25;4992587;28;20226;-71
2021/01/14 09:57:40;;;;;;;3.03;0.70;;;;;;;26.12;35.82;98480.53;4991325;28;20205;-70
2021/01/14 10:00:08;;;;;;;2.45;0.60;;;;;;;26.27;35.44;98474.34;4992697;28;20280;-71
2021/01/14 10:02:38;;;;;;;2.33;0.80;;;;;;;26.24;35.36;98472.84;4992113;28;20220;-70
2021/01/14 10:05:12;;;;;;;4.63;0.70;;;;;;;26.12;35.66;98477.84;4993687;28;20673;-71
2021/01/14 10:07:43;;;;;;;4.40;0.80;;;;;;;26.16;35.08;98475.63;4993624;28;20206;-71
2021/01/14 10:10:09;;;;;;;4.72;0.68;;;;;;;26.20;36.12;98471.56;4992647;28;20233;-71
2021/01/14 10:12:36;;;;;;;3.92;1.00;;;;;;;26.29;36.46;98475.00;4991327;28;20201;-70
2021/01/14 10:15:13;;;;;;;2.40;0.45;;;;;;;26.30;35.48;98476.66;4990717;28;20221;-70
2021/01/14 10:17:40;;;;;;;0.75;0.40;;;;;;;26.36;35.47;98483.94;4991394;28;20208;-71
2021/01/14 10:20:08;;;;;;;4.53;0.85;;;;;;;26.34;35.43;98475.28;4992010;28;20329;-71
2021/01/14 10:22:36;;;;;;;4.15;0.70;;;;;;;26.31;35.36;98475.63;4991916;28;20328;-71
2021/01/14 10:25:08;;;;;;;4.03;0.75;;;;;;;26.37;36.10;98472.22;4992733;28;20202;-70
2021/01/14 10:27:35;;;;;;;4.88;0.80;;;;;;;26.32;36.62;98472.78;4992141;28;20209;-70
2021/01/14 10:30:18;;;;;;;11.80;1.00;;;;;;;26.13;34.29;98476.84;4991046;28;20225;-70
2021/01/14 10:32:44;;;;;;;4.50;1.52;;;;;;;25.89;31.26;98485.91;4989113;28;20217;-71
2021/01/14 10:35:23;;;;;;;4.88;1.60;;;;;;;25.68;30.57;98489.28;4991736;28;20306;-72
2021/01/14 10:38:00;;;;;;;5.65;2.60;;;;;;;24.81;27.48;98486.78;4991670;28;20213;-71
2021/01/14 10:40:34;;;;;;;4.97;2.38;;;;;;;24.90;27.87;98499.13;4991810;28;20317;-71
2021/01/14 10:43:01;;;;;;;3.38;1.65;;;;;;;25.05;28.05;98493.88;4991305;28;20245;-70
2021/01/14 10:45:28;;;;;;;13.85;1.95;;;;;;;25.04;28.41;98497.53;4991865;28;20209;-67
2021/01/14 10:48:09;;;;;;;5.97;1.70;;;;;;;25.19;29.86;98505.66;4991126;28;20479;-71
2021/01/14 10:50:44;;;;;;;5.57;1.55;;;;;;;25.18;30.77;98504.81;4992030;28;20267;-72
2021/01/14 10:53:11;;;;;;;4.40;1.40;;;;;;;25.25;31.09;98511.13;4991351;28;20224;-72
2021/01/14 10:55:38;;;;;;;3.78;1.35;;;;;;;25.34;31.55;98519.97;4991663;28;20220;-71
2021/01/14 10:58:05;;;;;;;2.17;1.10;;;;;;;25.39;31.42;98512.22;4991189;28;20217;-71
2021/01/14 11:00:39;;;;;;;3.92;1.38;;;;;;;25.61;32.57;98520.44;4990651;28;20229;-72
2021/01/14 11:03:08;;;;;;;10.88;1.38;;;;;;;25.72;32.52;98517.34;4991298;28;20700;-72
2021/01/14 11:05:41;;;;;;;2.55;1.20;;;;;;;25.80;31.79;98511.94;4990250;28;20270;-73
2021/01/14 11:08:09;;;;;;;2.22;1.00;;;;;;;25.95;33.05;98505.78;4991736;28;20589;-70
2021/01/14 11:10:35;;;;;;;1.42;0.93;;;;;;;26.08;32.80;98503.34;4990901;28;20257;-69
2021/01/14 11:13:05;;;;;;;3.17;1.00;;;;;;;26.02;33.38;98502.22;4990932;28;20256;-70
2021/01/14 11:15:31;;;;;;;1.70;0.90;;;;;;;26.00;33.15;98498.91;4991059;28;20312;-71
2021/01/14 11:17:59;;;;;;;2.22;0.90;;;;;;;26.12;32.23;98498.44;4991614;28;20253;-73
2021/01/14 11:20:26;;;;;;;5.95;1.30;;;;;;;26.04;32.25;98510.06;4991625;28;20299;-71
2021/01/14 11:22:52;;;;;;;2.90;1.10;;;;;;;26.02;32.95;98496.03;4990615;28;20209;-71
2021/01/14 11:25:18;;;;;;;2.35;1.10;;;;;;;25.95;32.20;98501.28;4990648;28;20197;-72
2021/01/14 11:27:44;;;;;;;3.33;1.10;;;;;;;25.98;32.36;98500.06;4991164;28;20320;-70
2021/01/14 11:30:13;;;;;;;6.55;1.20;;;;;;;25.99;32.13;98505.25;4990300;28;20263;-69
2021/01/14 11:32:39;;;;;;;2.70;1.00;;;;;;;25.96;31.66;98502.09;4991078;28;20224;-70
2021/01/14 11:35:06;;;;;;;2.42;1.25;;;;;;;25.93;32.58;98497.06;4991047;28;20268;-72
2021/01/14 11:37:32;;;;;;;5.50;1.10;;;;;;;25.88;32.19;98499.47;4989701;28;20213;-72
2021/01/14 11:39:58;;;;;;;3.65;1.00;;;;;;;25.91;31.89;98496.44;4990123;28;20257;-71
2021/01/14 11:42:27;;;;;;;9.60;1.50;;;;;;;25.88;32.86;98494.13;4991115;28;20224;-72